Big Bear Station Historical Data
Daily Summary for September 2, 2017 Units:  English    Metric   Both
« Previous Day
Next Day »
Daily Weekly Monthly Yearly Custom
  High: Low: Average:
Temperature: 85.8 °F 51.6 °F 66.9 °F
Dew Point: 56.9 °F 41.4 °F 49.5 °F
Humidity: 85 % 26 % 59 %
Wind Speed: 5.8 mph 0.0 mph 1.2 mph
Wind Gust: -999.0 mph - -
Wind:- - SW
Pressure: 30.35 in 30.27 in -
Precipitation: 0.00 in    
Historical Graphs
 
 
Tabular Data for September 2, 2017
Time Temperature Dew Point Pressure Wind Wind Speed Wind Gust Humidity Rainfall Rate (Hourly)
00:10 56.5 °F 41.4 °F 30.29 in Calm   -999.0 mph 57 % 0 in
00:25 56.1 °F 42.8 °F 30.29 in Calm   -999.0 mph 61 % 0 in
00:40 55.9 °F 45.5 °F 30.29 in Calm   -999.0 mph 68 % 0 in
00:56 55.8 °F 46.2 °F 30.29 in Calm   -999.0 mph 70 % 0 in
01:11 55.8 °F 45.4 °F 30.28 in Calm   -999.0 mph 68 % 0 in
01:26 55.6 °F 45.2 °F 30.28 in Calm   -999.0 mph 68 % 0 in
01:41 55.2 °F 46.3 °F 30.28 in Calm   -999.0 mph 72 % 0 in
01:56 55.2 °F 47.1 °F 30.28 in Calm   -999.0 mph 74 % 0 in
02:12 55.0 °F 46.9 °F 30.28 in Calm   -999.0 mph 74 % 0 in
02:27 54.7 °F 47.3 °F 30.28 in Calm   -999.0 mph 76 % 0 in
02:42 54.5 °F 47.4 °F 30.28 in South 1.7 mph -999.0 mph 77 % 0 in
02:57 54.1 °F 47.1 °F 30.28 in Calm   -999.0 mph 77 % 0 in
03:12 54.0 °F 47.3 °F 30.27 in Calm   -999.0 mph 78 % 0 in
03:28 53.8 °F 47.8 °F 30.27 in Calm   -999.0 mph 80 % 0 in
03:43 53.4 °F 47.7 °F 30.27 in Calm   -999.0 mph 81 % 0 in
03:58 53.2 °F 47.8 °F 30.27 in Calm   -999.0 mph 82 % 0 in
04:13 53.1 °F 47.8 °F 30.27 in Calm   -999.0 mph 82 % 0 in
04:29 53.1 °F 47.8 °F 30.27 in Calm   -999.0 mph 82 % 0 in
04:44 52.7 °F 47.7 °F 30.27 in Calm   -999.0 mph 83 % 0 in
04:59 52.5 °F 47.5 °F 30.27 in Calm   -999.0 mph 83 % 0 in
05:14 52.5 °F 47.5 °F 30.27 in Calm   -999.0 mph 83 % 0 in
05:29 52.3 °F 47.3 °F 30.27 in Calm   -999.0 mph 83 % 0 in
05:45 52.3 °F 47.6 °F 30.28 in Calm   -999.0 mph 84 % 0 in
06:00 52.2 °F 47.8 °F 30.28 in Calm   -999.0 mph 85 % 0 in
06:15 52.0 °F 47.6 °F 30.28 in Calm   -999.0 mph 85 % 0 in
06:30 51.6 °F 47.2 °F 30.28 in Calm   -999.0 mph 85 % 0 in
06:45 52.0 °F 47.6 °F 30.29 in Calm   -999.0 mph 85 % 0 in
07:01 52.0 °F 47.6 °F 30.29 in Calm   -999.0 mph 85 % 0 in
07:16 52.5 °F 48.1 °F 30.29 in Calm   -999.0 mph 85 % 0 in
07:31 52.9 °F 48.2 °F 30.29 in Calm   -999.0 mph 84 % 0 in
07:46 53.2 °F 48.2 °F 30.30 in Calm   -999.0 mph 83 % 0 in
08:01 54.3 °F 49.6 °F 30.30 in Calm   -999.0 mph 84 % 0 in
08:17 55.2 °F 50.1 °F 30.30 in Calm   -999.0 mph 83 % 0 in
08:32 57.0 °F 51.9 °F 30.31 in Calm   -999.0 mph 83 % 0 in
08:47 59.4 °F 54.2 °F 30.31 in Calm   -999.0 mph 83 % 0 in
09:02 62.2 °F 54.9 °F 30.31 in Calm   -999.0 mph 77 % 0 in
09:18 64.9 °F 51.1 °F 30.31 in Calm   -999.0 mph 61 % 0 in
09:33 68.7 °F 47.1 °F 30.31 in SW 1.7 mph -999.0 mph 46 % 0 in
09:48 72.1 °F 45.1 °F 30.31 in WNW 2.7 mph -999.0 mph 38 % 0 in
10:03 73.8 °F 43.7 °F 30.31 in WSW 5.3 mph -999.0 mph 34 % 0 in
10:18 75.2 °F 44.9 °F 30.31 in Calm   -999.0 mph 34 % 0 in
10:34 77.4 °F 43.5 °F 30.31 in ESE 1.7 mph -999.0 mph 30 % 0 in
10:49 78.4 °F 43.5 °F 30.31 in NNW 2.7 mph -999.0 mph 29 % 0 in
11:04 80.4 °F 44.3 °F 30.31 in ESE 2.7 mph -999.0 mph 28 % 0 in
11:19 81.7 °F 45.4 °F 30.31 in NE 3.2 mph -999.0 mph 28 % 0 in
11:34 82.8 °F 45.4 °F 30.31 in North 3.2 mph -999.0 mph 27 % 0 in
11:50 83.5 °F 46.0 °F 30.31 in NW 3.2 mph -999.0 mph 27 % 0 in
12:05 83.7 °F 46.2 °F 30.31 in NNE 3.7 mph -999.0 mph 27 % 0 in
12:20 84.2 °F 46.6 °F 30.31 in NNW 3.7 mph -999.0 mph 27 % 0 in
12:36 85.1 °F 46.4 °F 30.31 in ENE 2.7 mph -999.0 mph 26 % 0 in
12:51 85.3 °F 46.5 °F 30.30 in WNW 5.8 mph -999.0 mph 26 % 0 in
13:06 84.7 °F 46.0 °F 30.30 in NNW 4.2 mph -999.0 mph 26 % 0 in
13:21 85.8 °F 48.0 °F 30.30 in NW 5.3 mph -999.0 mph 27 % 0 in
13:36 84.4 °F 49.6 °F 30.29 in NE 4.2 mph -999.0 mph 30 % 0 in
13:52 82.9 °F 49.2 °F 30.29 in NNE 2.2 mph -999.0 mph 31 % 0 in
14:07 81.1 °F 50.9 °F 30.29 in NNW 3.7 mph -999.0 mph 35 % 0 in
14:22 83.1 °F 50.2 °F 30.29 in NW 3.2 mph -999.0 mph 32 % 0 in
14:37 82.9 °F 49.2 °F 30.28 in NNW 5.3 mph -999.0 mph 31 % 0 in
14:53 82.2 °F 47.7 °F 30.28 in South 2.7 mph -999.0 mph 30 % 0 in
15:08 82.9 °F 49.2 °F 30.28 in NNW 2.2 mph -999.0 mph 31 % 0 in
15:23 80.8 °F 51.4 °F 30.28 in SW 2.7 mph -999.0 mph 36 % 0 in
15:38 81.7 °F 55.0 °F 30.28 in NW 3.2 mph -999.0 mph 40 % 0 in
15:54 81.0 °F 56.4 °F 30.28 in WNW 4.2 mph -999.0 mph 43 % 0 in
16:09 80.1 °F 56.9 °F 30.28 in NNW 1.7 mph -999.0 mph 45 % 0 in
16:24 80.2 °F 56.3 °F 30.28 in WNW 2.7 mph -999.0 mph 44 % 0 in
16:39 80.6 °F 56.7 °F 30.28 in WNW 3.2 mph -999.0 mph 44 % 0 in
16:54 83.3 °F 56.5 °F 30.28 in NNW 3.2 mph -999.0 mph 40 % 0 in
17:10 83.8 °F 56.2 °F 30.28 in NW 3.2 mph -999.0 mph 39 % 0 in
17:25 85.5 °F 53.9 °F 30.28 in SSW 2.7 mph -999.0 mph 34 % 0 in
17:41 82.0 °F 54.6 °F 30.28 in NW 2.7 mph -999.0 mph 39 % 0 in
17:56 79.5 °F 53.1 °F 30.29 in Calm   -999.0 mph 40 % 0 in
18:11 76.8 °F 51.3 °F 30.29 in ENE 1.7 mph -999.0 mph 41 % 0 in
18:27 75.6 °F 50.9 °F 30.29 in South 1.1 mph -999.0 mph 42 % 0 in
18:42 74.1 °F 52.0 °F 30.30 in Calm   -999.0 mph 46 % 0 in
18:57 72.5 °F 52.8 °F 30.30 in Calm   -999.0 mph 50 % 0 in
19:12 71.2 °F 53.2 °F 30.30 in Calm   -999.0 mph 53 % 0 in
19:27 70.0 °F 52.6 °F 30.31 in SSE 1.7 mph -999.0 mph 54 % 0 in
19:43 68.2 °F 52.9 °F 30.31 in SSE 2.2 mph -999.0 mph 58 % 0 in
19:58 67.8 °F 52.0 °F 30.32 in Calm   -999.0 mph 57 % 0 in
20:28 65.8 °F 53.3 °F 30.32 in Calm   -999.0 mph 64 % 0 in
20:43 65.1 °F 53.0 °F 30.33 in Calm   -999.0 mph 65 % 0 in
20:59 64.2 °F 53.0 °F 30.33 in Calm   -999.0 mph 67 % 0 in
21:14 63.7 °F 53.3 °F 30.33 in Calm   -999.0 mph 69 % 0 in
21:29 63.0 °F 53.1 °F 30.33 in Calm   -999.0 mph 70 % 0 in
21:44 62.2 °F 53.1 °F 30.34 in South 1.7 mph -999.0 mph 72 % 0 in
21:59 61.5 °F 52.4 °F 30.34 in Calm   -999.0 mph 72 % 0 in
22:15 60.8 °F 52.8 °F 30.35 in Calm   -999.0 mph 75 % 0 in
22:30 60.3 °F 52.7 °F 30.35 in Calm   -999.0 mph 76 % 0 in
23:00 59.4 °F 52.9 °F 30.35 in Calm   -999.0 mph 79 % 0 in
23:16 59.2 °F 53.4 °F 30.35 in Calm   -999.0 mph 81 % 0 in
23:31 58.8 °F 53.3 °F 30.35 in Calm   -999.0 mph 82 % 0 in
23:46 58.5 °F 51.7 °F 30.35 in Calm   -999.0 mph 78 % 0 in
Big Bear CA Weather
Compliments of Weather Underground - 1.5 mb